21:26
Airports
History
Links
Donate
Help keep this website running!
PayPal
Bitcoin
This page is community maintained. The information is intended for PC simulator navigation or reference.
Always use approved charts for navigation.
EHSE
Seppe
Seppe (EHSE)
Bosschenhoofd, Noord-Brabant, Netherlands (4744)
(C)
Lat/Lng:51° 33' 17.8" N / 4° 33' 11.63" E
51.554945 / 4.553231
Elevation:30'ft / 9mMSL
ID / ICAO:EHSE
Runways:1
Longest:07-25
Asphalt 853m / 2,799ft
Controlled:Yes
Nearby Weather21:25 GMT 2017-11-19
Nearby weather at EHWO, Woensdrecht located 11.7 nautical miles from EHSE
Altimeter: 30.18
Visibility: 6.2 statute miles
Wind: 5 knots (from 230°)
Temp: 4°c / 39°f
Humidity: 93.2%

METAR: EHWO 192125Z AUTO 23005KT 190V250 9999 OVC140 04/03 Q1022 BLU

(Powered by phpweather)
Airport Radio Frequencies
Tower: 120.65
Nearby VORs <50NM
Nearby NDBs
Runway 07 / 25
Dimensions:853 x 22.9m 2799' x 75'ft
Surface:Asphalt
Runway 07 [A]Runway 25 [B]
Heading:065°TH 245°TH
Lat:
Lng:
51° 33' 12.23"N
4° 32' 51.49"E
51° 33' 23.38"N
4° 33' 31.77"E
User Notes and Comments
51° 33' 17.8" N / 4° 33' 11.63" E
Distance To
Airport ID:
Nearby Airports
(C) Woensdrecht 11.7 NM
EHWO ( WX ) SW 231°
(C) Brasschaat 14.9 NM
EBBT S 188°
(C) Gilze Rijen 16.3 NM
EHGR ( WX ) E 87°
4 EBHN 18.0 NM
EBHN SSW 202°
(U) WEELDE 20.7 NM
EBWE ESE 122°
(C) Zoersel 21.8 NM
EBZR SSE 156°
(C) Antwerp Deurne 25.5 NM
EBAW ( WX ) S 188°
VFR Chart
Flight Planning at SkyVector.com